Springfield, MO (65807)

2:30 PM CST on November 24, 2014 (GMT -0600)
West Springfield | Change Station
CLOSE
Current Station
Personal Weather Station
Location: Springfield, MO
Elevation: 1230 ft
Nearby Weather Stations

Elev 1230 ft 37.19 °N, 93.36 °W | Updated 17 seconds ago

Mostly Cloudy
Mostly Cloudy
48.4 °F
Feels Like 48 °F
N
-
Wind Variable Wind from North

Today
High -- | Low -- °F
--% Chance of Precip.
Yesterday
High -- | Low -- °F
Precip. -- in
7:01 AM 4:58 PM
Waxing Crescent, 7% visible
Pressure 29.83 in
Visibility 10.0 miles
Clouds Mostly Cloudy 4800 ft
Windchill 48 °F
Dew Point 33 °F
Humidity 56%
Rainfall 0.03 in
Snow Depth Not available.
UV 1 out of 12
Pollen .40 out of 12
Air Quality Not available.
Flu Activity Not available.
METAR KSGF 241952Z 27019G28KT 10SM BKN048 09/M03 A2982 RMK AO2 PK WND 28029/1930 SLP099 T00891028

More Conditions Fewer Conditions

Pressure 29.83 in
Visibility 10.0 miles
Clouds Mostly Cloudy 4800 ft
Windchill 48 °F
Dew Point 33 °F
Humidity 56%
Rainfall 0.03 in
Snow Depth Not available.
UV 1 out of 12
Pollen .40 out of 12
Air Quality Not available.
Flu Activity Not available.
METAR KSGF 241952Z 27019G28KT 10SM BKN048 09/M03 A2982 RMK AO2 PK WND 28029/1930 SLP099 T00891028

More Conditions Fewer Conditions

10-Day Weather Forecast

Almanac

Astronomy

Nov. 24, 2014 Rise Set
Actual Time
Civil Twilight
Nautical Twilight
Astronomical Twilight
Moon
Length of Visible Light
Length of Day
Tomorrow will be .
, % of the Moon is Illuminated

Today's Extremes

State Highs State Lows

Community

WunderPhotos

Upload Photos

1,773,406 photos uploaded!

WunderBlogs® & News

Nearby

Air Quality

  Air Quality AQ Index Pollutant
Not available.

Snow Depth

Station Depth Elevation

Earthquake Activity

City Distance Mag. Time & Date
Minimum magnitude displayed is 2.5.

Coastal Water Temperatures

Place Temperature

Nearby Weather Stations